Time;durP1;ratioP1;P1;durP2;ratioP2;P2;SDS_P1;SDS_P2;PMS_P1;PMS_P2;Temp;Humidity;BMP_temperature;BMP_pressure;BME280_temperature;BME280_humidity;BME280_pressure;Samples;Min_cycle;Max_cycle;Signal;HPM_P1;HPM_P2
2021/04/24 05:25:55;;;;;;;32.50;16.90;;;;;;;;;;5334836;23;20066;-70
2021/04/24 05:28:21;;;;;;;31.65;17.50;;;;;;;;;;4917825;29;20052;-70
2021/04/24 05:30:47;;;;;;;32.25;16.58;;;;;;;;;;4918233;29;20479;-70
2021/04/24 05:33:13;;;;;;;31.10;16.95;;;;;;;;;;4935252;29;20047;-70
2021/04/24 05:35:43;;;;;;;31.70;16.30;;;;;;;;;;4934635;29;20020;-68
2021/04/24 05:38:09;;;;;;;34.75;16.55;;;;;;;;;;4917476;29;20114;-68
2021/04/24 05:40:35;;;;;;;29.83;15.63;;;;;;;;;;4934941;29;20031;-68
2021/04/24 05:43:01;;;;;;;33.97;16.13;;;;;;;;;;4935092;29;20057;-69
2021/04/24 05:45:27;;;;;;;29.90;16.08;;;;;;;;;;4934542;29;20074;-67
2021/04/24 05:47:53;;;;;;;36.22;16.13;;;;;;;;;;4935318;29;20035;-68
2021/04/24 05:50:22;;;;;;;33.15;16.27;;;;;;;;;;4934560;29;20091;-67
2021/04/24 05:52:48;;;;;;;34.80;16.75;;;;;;;;;;4934585;29;20466;-67
2021/04/24 05:55:15;;;;;;;30.00;16.58;;;;;;;;;;4934794;29;20028;-69
2021/04/24 05:57:41;;;;;;;34.03;16.95;;;;;;;;;;4934985;29;20043;-65
2021/04/24 06:00:18;;;;;;;32.75;16.75;;;;;;;;;;4934864;29;20034;-68
2021/04/24 06:02:44;;;;;;;31.60;16.50;;;;;;;;;;4934438;29;20163;-68
2021/04/24 06:05:11;;;;;;;31.48;16.83;;;;;;;;;;4934301;29;20067;-68
2021/04/24 06:07:37;;;;;;;35.20;16.80;;;;;;;;;;4934391;29;20035;-67
2021/04/24 06:10:04;;;;;;;34.83;17.58;;;;;;;;;;4933292;29;20468;-69
2021/04/24 06:12:30;;;;;;;37.08;17.25;;;;;;;;;;4921071;29;20032;-67
2021/04/24 06:14:56;;;;;;;32.95;16.95;;;;;;;;;;4920959;29;20032;-66
2021/04/24 06:17:23;;;;;;;36.95;17.10;;;;;;;;;;4915814;29;20035;-67
2021/04/24 06:19:49;;;;;;;38.53;17.15;;;;;;;;;;4897701;29;20131;-64
2021/04/24 06:22:15;;;;;;;30.02;16.58;;;;;;;;;;4916743;29;20075;-65
2021/04/24 06:24:41;;;;;;;29.63;16.05;;;;;;;;;;4916441;29;20059;-67
2021/04/24 06:27:07;;;;;;;33.28;15.85;;;;;;;;;;4934748;29;20040;-66
2021/04/24 20:11:56;;;;;;;37.70;20.23;;;;;;;;;;3752233;23;20052;-65
2021/04/24 20:14:24;;;;;;;41.90;20.92;;;;;;;;;;4918094;29;20095;-64
2021/04/24 20:16:51;;;;;;;41.33;21.25;;;;;;;;;;4927274;29;20042;-66
2021/04/24 20:19:17;;;;;;;42.08;21.83;;;;;;;;;;4946361;29;20784;-67
2021/04/24 20:21:43;;;;;;;49.28;22.88;;;;;;;;;;4928584;29;20090;-65
2021/04/24 20:24:09;;;;;;;40.13;21.67;;;;;;;;;;4946971;29;20440;-65
2021/04/24 20:26:35;;;;;;;39.85;21.20;;;;;;;;;;4934653;29;20031;-66
2021/04/24 20:29:02;;;;;;;41.13;21.33;;;;;;;;;;4955033;29;20038;-65
2021/04/24 20:31:28;;;;;;;41.50;21.05;;;;;;;;;;4954676;29;20042;-64
2021/04/24 20:33:54;;;;;;;43.85;21.30;;;;;;;;;;4954389;29;20031;-63
2021/04/24 20:36:20;;;;;;;38.97;20.73;;;;;;;;;;4953551;29;20067;-62
2021/04/24 20:38:46;;;;;;;40.55;21.17;;;;;;;;;;4954317;29;20403;-64
2021/04/24 20:41:12;;;;;;;41.28;20.38;;;;;;;;;;4953284;29;20043;-63
2021/04/24 20:43:38;;;;;;;34.28;20.88;;;;;;;;;;4947302;29;20031;-67
2021/04/24 20:46:05;;;;;;;40.53;19.85;;;;;;;;;;4942708;29;20054;-64
2021/04/24 20:48:31;;;;;;;34.22;18.92;;;;;;;;;;4955316;29;20521;-63
2021/04/24 20:50:57;;;;;;;34.80;19.70;;;;;;;;;;4937717;29;20103;-66
2021/04/24 20:53:23;;;;;;;35.67;19.13;;;;;;;;;;4954077;29;20074;-64
2021/04/24 20:55:50;;;;;;;33.85;19.15;;;;;;;;;;4954456;28;20119;-64
2021/04/24 20:58:16;;;;;;;37.38;23.10;;;;;;;;;;4955056;29;20038;-64
2021/04/24 21:00:43;;;;;;;33.80;21.63;;;;;;;;;;4937303;29;20151;-65
2021/04/24 21:03:09;;;;;;;41.10;21.88;;;;;;;;;;4954222;29;20031;-66
2021/04/24 21:05:36;;;;;;;36.05;19.75;;;;;;;;;;4954313;29;20035;-68
2021/04/24 21:08:02;;;;;;;32.72;17.40;;;;;;;;;;4955287;29;20035;-68
2021/04/24 21:10:28;;;;;;;27.55;15.80;;;;;;;;;;4946546;29;20034;-66
2021/04/24 21:12:54;;;;;;;28.30;16.23;;;;;;;;;;4915723;29;20062;-65
2021/04/24 21:15:20;;;;;;;30.33;17.50;;;;;;;;;;4916399;29;20062;-66
2021/04/24 21:17:46;;;;;;;32.58;16.80;;;;;;;;;;4911790;29;20123;-65
2021/04/24 21:20:13;;;;;;;28.95;15.77;;;;;;;;;;4915102;29;20107;-64
2021/04/24 21:22:40;;;;;;;27.95;15.68;;;;;;;;;;4911564;29;20020;-64
2021/04/24 21:25:07;;;;;;;28.45;16.10;;;;;;;;;;4907606;29;20385;-64
2021/04/24 21:27:33;;;;;;;33.28;16.25;;;;;;;;;;4919815;29;20028;-64
2021/04/24 21:29:59;;;;;;;28.08;16.10;;;;;;;;;;4913099;29;20499;-63
2021/04/24 21:32:26;;;;;;;28.35;16.05;;;;;;;;;;4896727;29;20067;-66
2021/04/24 21:34:52;;;;;;;28.08;16.10;;;;;;;;;;4922182;29;20036;-66
2021/04/24 21:37:18;;;;;;;28.30;16.17;;;;;;;;;;4912045;29;20036;-64
2021/04/24 21:39:46;;;;;;;29.92;16.38;;;;;;;;;;4908064;29;20103;-65
2021/04/24 21:42:12;;;;;;;26.05;14.25;;;;;;;;;;4915855;29;20032;-65
2021/04/24 21:44:42;;;;;;;24.90;13.70;;;;;;;;;;4926278;29;20114;-63
2021/04/24 21:47:08;;;;;;;25.17;14.45;;;;;;;;;;4929477;29;20395;-67
2021/04/24 21:49:34;;;;;;;30.88;14.82;;;;;;;;;;4935121;29;20028;-65
2021/04/24 21:52:00;;;;;;;28.15;14.75;;;;;;;;;;4934762;29;20035;-69
2021/04/24 21:54:26;;;;;;;24.15;13.90;;;;;;;;;;4934664;29;20027;-69
2021/04/24 21:56:52;;;;;;;26.88;14.48;;;;;;;;;;4935118;29;20114;-69
2021/04/24 21:59:18;;;;;;;27.98;13.52;;;;;;;;;;4935127;29;20040;-69
2021/04/24 22:01:44;;;;;;;29.25;14.13;;;;;;;;;;4934302;29;20042;-69
2021/04/24 22:04:11;;;;;;;25.90;13.38;;;;;;;;;;4934757;29;20047;-69
2021/04/24 22:06:37;;;;;;;23.70;12.18;;;;;;;;;;4934178;29;20399;-69
2021/04/24 22:09:04;;;;;;;24.55;12.13;;;;;;;;;;4934652;29;20035;-69
2021/04/24 22:11:31;;;;;;;24.13;12.68;;;;;;;;;;4934169;29;20083;-68
2021/04/24 22:13:57;;;;;;;23.30;11.85;;;;;;;;;;4934210;29;20038;-69
2021/04/24 22:16:23;;;;;;;23.42;12.02;;;;;;;;;;4934130;29;20447;-68
2021/04/24 22:18:49;;;;;;;21.05;10.52;;;;;;;;;;4916815;29;20457;-69
2021/04/24 22:21:15;;;;;;;21.52;11.52;;;;;;;;;;4934669;29;20072;-69
2021/04/24 22:23:41;;;;;;;28.23;14.10;;;;;;;;;;4933966;29;20523;-68
2021/04/24 22:26:07;;;;;;;22.30;11.45;;;;;;;;;;4933719;29;20219;-69
2021/04/24 22:28:33;;;;;;;21.77;11.07;;;;;;;;;;4934185;29;20035;-69
2021/04/24 22:30:59;;;;;;;18.23;10.07;;;;;;;;;;4934016;29;20407;-70
2021/04/24 22:33:26;;;;;;;20.83;11.45;;;;;;;;;;4934253;29;20110;-67
2021/04/24 22:35:52;;;;;;;18.75;9.68;;;;;;;;;;4933954;29;20118;-69
2021/04/24 22:38:18;;;;;;;19.23;9.43;;;;;;;;;;4934318;29;20111;-70
2021/04/24 22:40:44;;;;;;;18.33;9.68;;;;;;;;;;4933470;29;20177;-69
2021/04/24 22:43:10;;;;;;;19.77;9.95;;;;;;;;;;4933672;29;20023;-68
2021/04/24 22:45:36;;;;;;;19.75;10.60;;;;;;;;;;4933948;29;20032;-70
2021/04/24 22:48:02;;;;;;;18.85;10.02;;;;;;;;;;4933984;29;20206;-69
2021/04/24 22:50:30;;;;;;;21.67;10.43;;;;;;;;;;4933250;29;20126;-69
2021/04/24 22:52:56;;;;;;;17.08;10.35;;;;;;;;;;4933586;29;20464;-70
2021/04/24 22:55:23;;;;;;;18.77;10.48;;;;;;;;;;4934679;29;20054;-70
2021/04/24 22:57:50;;;;;;;18.27;10.77;;;;;;;;;;4933976;29;20038;-68
2021/04/24 23:00:18;;;;;;;18.58;10.30;;;;;;;;;;4934162;29;20035;-67
2021/04/24 23:02:44;;;;;;;23.15;10.93;;;;;;;;;;4933688;29;20042;-69
2021/04/24 23:05:11;;;;;;;20.50;10.13;;;;;;;;;;4933652;29;20024;-68
2021/04/24 23:07:37;;;;;;;19.63;10.02;;;;;;;;;;4933973;29;20035;-69
2021/04/24 23:10:04;;;;;;;19.02;10.50;;;;;;;;;;4933929;29;20051;-69
2021/04/24 23:12:30;;;;;;;18.30;9.73;;;;;;;;;;4933142;29;20525;-70
2021/04/24 23:14:56;;;;;;;20.70;10.18;;;;;;;;;;4933758;29;20059;-69
2021/04/24 23:17:22;;;;;;;20.42;10.70;;;;;;;;;;4933508;29;20039;-70
2021/04/24 23:19:48;;;;;;;22.10;10.50;;;;;;;;;;4932800;29;20358;-69
2021/04/24 23:22:14;;;;;;;20.25;9.75;;;;;;;;;;4933716;29;20032;-70
2021/04/24 23:24:40;;;;;;;17.05;9.43;;;;;;;;;;4933746;29;20098;-69
2021/04/24 23:27:06;;;;;;;18.83;10.05;;;;;;;;;;4933328;29;20027;-69
2021/04/24 23:29:32;;;;;;;18.42;10.45;;;;;;;;;;4933560;29;20031;-67
2021/04/24 23:31:59;;;;;;;19.52;9.52;;;;;;;;;;4933516;29;20027;-68
2021/04/24 23:34:25;;;;;;;18.55;9.70;;;;;;;;;;4933988;29;20050;-68
2021/04/24 23:36:51;;;;;;;19.45;10.65;;;;;;;;;;4933345;29;20028;-69
2021/04/24 23:39:18;;;;;;;20.77;10.45;;;;;;;;;;4933332;29;20040;-69
2021/04/24 23:41:44;;;;;;;17.52;10.15;;;;;;;;;;4933033;29;20245;-69
2021/04/24 23:44:10;;;;;;;19.02;9.65;;;;;;;;;;4933452;29;20107;-69
2021/04/24 23:46:36;;;;;;;21.95;10.25;;;;;;;;;;4933091;29;20066;-69
2021/04/24 23:49:02;;;;;;;18.65;10.40;;;;;;;;;;4933856;29;20039;-68
2021/04/24 23:51:28;;;;;;;19.05;10.25;;;;;;;;;;4915881;29;20443;-69
2021/04/24 23:53:54;;;;;;;20.23;10.23;;;;;;;;;;4933851;29;20050;-69
2021/04/24 23:56:21;;;;;;;17.63;9.90;;;;;;;;;;4934119;29;20028;-70
2021/04/24 23:58:47;;;;;;;19.08;10.02;;;;;;;;;;4933560;29;20039;-69
